Orbital elements of COSMOS 2251 DEB
| Launched | 15 June 1993 |
| Flight ended | – |
| Launch site | Plesetsk Missile and Space Complex, Russia |
| Owner | Commonwealth of Independent States (former USSR) |
| NORAD ID | 33984 |
| Date fetched |
Epoch osculation |
Inc. [°] |
Ecc. | RA asc node [hr] |
Arg Peri. [°] |
Mean anom [°] |
Mean motion [rev/day] |
Abs. mag |
| Date fetched |
Epoch osculation |
Inc. [°] |
Ecc. | RA asc node [hr] |
Arg Peri. [°] |
Mean anom [°] |
Mean motion [rev/day] |
Abs. mag |
| 2026 May 01 17:56 | 2026 Apr 30 15:35:24 | 74.0074 | 0.00255 | 5.2373 | 236.2278 | 305.4979 | 14.67722 | – |
| 2026 Apr 30 17:56 | 2026 Apr 30 15:35:24 | 74.0074 | 0.00255 | 5.2373 | 236.2278 | 305.4979 | 14.67722 | – |
| 2026 Apr 29 17:57 | 2026 Apr 24 08:56:48 | 74.0064 | 0.00256 | 6.0471 | 249.6264 | 305.4979 | 14.67722 | – |
| 2026 Apr 28 17:56 | 2026 Apr 24 08:56:48 | 74.0064 | 0.00256 | 6.0471 | 249.6264 | 305.4979 | 14.67722 | – |
| 2026 Apr 27 17:58 | 2026 Apr 24 08:56:48 | 74.0064 | 0.00256 | 6.0471 | 249.6264 | 305.4979 | 14.67722 | – |
| 2026 Apr 26 17:58 | 2026 Apr 24 08:56:48 | 74.0064 | 0.00256 | 6.0471 | 249.6264 | 305.4979 | 14.67722 | – |
| 2026 Apr 25 17:58 | 2026 Apr 24 08:56:48 | 74.0064 | 0.00256 | 6.0471 | 249.6264 | 305.4979 | 14.67722 | – |
| 2026 Apr 24 17:59 | 2026 Apr 24 08:56:48 | 74.0064 | 0.00256 | 6.0471 | 249.6264 | 305.4979 | 14.67722 | – |
| 2026 Apr 23 17:57 | 2026 Apr 19 05:37:58 | 74.0059 | 0.00258 | 6.7100 | 260.4515 | 305.4979 | 14.67722 | – |
| 2026 Apr 22 17:57 | 2026 Apr 19 05:37:58 | 74.0059 | 0.00258 | 6.7100 | 260.4515 | 305.4979 | 14.67722 | – |
| 2026 Apr 21 17:57 | 2026 Apr 19 05:37:58 | 74.0059 | 0.00258 | 6.7100 | 260.4515 | 305.4979 | 14.67722 | – |
| 2026 Apr 20 17:57 | 2026 Apr 19 05:37:58 | 74.0059 | 0.00258 | 6.7100 | 260.4515 | 305.4979 | 14.67722 | – |
| 2026 Apr 19 17:58 | 2026 Apr 19 05:37:58 | 74.0059 | 0.00258 | 6.7100 | 260.4515 | 305.4979 | 14.67722 | – |
| 2026 Apr 18 17:56 | 2026 Apr 13 07:20:05 | 74.0055 | 0.00258 | 7.4748 | 272.7732 | 305.4979 | 14.67722 | – |
| 2026 Apr 16 17:57 | 2026 Apr 13 07:20:05 | 74.0055 | 0.00258 | 7.4748 | 272.7732 | 305.4979 | 14.67722 | – |
| 2026 Apr 14 17:57 | 2026 Apr 13 07:20:05 | 74.0055 | 0.00258 | 7.4748 | 272.7732 | 305.4979 | 14.67722 | – |
| 2026 Apr 13 17:57 | 2026 Apr 13 07:20:05 | 74.0055 | 0.00258 | 7.4748 | 272.7732 | 305.4979 | 14.67722 | – |
| 2026 Apr 12 17:57 | 2026 Apr 08 11:45:52 | 74.0062 | 0.00258 | 8.0960 | 282.7743 | 305.4979 | 14.67722 | – |
| 2026 Apr 11 17:57 | 2026 Apr 08 11:45:52 | 74.0062 | 0.00258 | 8.0960 | 282.7743 | 305.4979 | 14.67722 | – |
| 2026 Apr 10 17:58 | 2026 Apr 08 11:45:52 | 74.0062 | 0.00258 | 8.0960 | 282.7743 | 305.4979 | 14.67722 | – |
| 2026 Apr 09 18:01 | 2026 Apr 08 11:45:52 | 74.0062 | 0.00258 | 8.0960 | 282.7743 | 305.4979 | 14.67722 | – |
| 2026 Apr 08 17:57 | 2026 Apr 08 11:45:52 | 74.0062 | 0.00258 | 8.0960 | 282.7743 | 305.4979 | 14.67722 | – |
| 2026 Apr 07 17:57 | 2026 Apr 02 04:50:55 | 74.0066 | 0.00256 | 8.9071 | 295.8902 | 305.4979 | 14.67722 | – |
| 2026 Apr 06 17:57 | 2026 Apr 02 04:50:55 | 74.0066 | 0.00256 | 8.9071 | 295.8902 | 305.4979 | 14.67722 | – |
| 2026 Apr 05 17:56 | 2026 Apr 02 04:50:55 | 74.0066 | 0.00256 | 8.9071 | 295.8902 | 305.4979 | 14.67722 | – |
| 2026 Apr 04 17:57 | 2026 Apr 02 04:50:55 | 74.0066 | 0.00256 | 8.9071 | 295.8902 | 305.4979 | 14.67722 | – |